Navigator Of The Seas — C6FU4 — position and weather

sailwx.info

Track history (hours):
 
Tides and Currents Weather Stations Pressure Air Temp Water Temp Dewpoint Dewpoint Depression Visibility Wind Speed Wind Dir Waves Ship Positions

Navigator Of The Seas

Operator: Royal Caribbean Cruises Ltd

Last reported at 2018-Dec-08 01:22 UTC. Time now 2018-Dec-12 14:39 UTC.
Position N 25°13' W 079°48'.

Type: Passenger vessel. MMSI: 311478000.

Date/timePositionNaut miles runAvg speedWind from/ knotsBaromVisibWave heightAir tempDewpointWater temp
2018-Dec-08 01:22N 25°13' W 079°48'615.1
2018-Dec-08 01:00N 25°19' W 079°50'714.9
2018-Dec-08 00:30N 25°26' W 079°53'714.7
2018-Dec-08 00:00N 25°32' W 079°56'714.2
2018-Dec-07 23:30N 25°39' W 079°60'714.2
2018-Dec-07 23:00N 25°45' W 080°04'5 9.1
2018-Dec-07 22:30N 25°46' W 080°09'2 3.5
2018-Dec-07 22:00N 25°47' W 080°11'0 0.0
2018-Dec-07 21:30N 25°47' W 080°11'0 0.0
2018-Dec-07 21:00N 25°47' W 080°11'0 0.0
2018-Dec-07 20:30N 25°47' W 080°11'0 0.0
2018-Dec-07 20:00N 25°47' W 080°11'0 0.0
2018-Dec-07 19:30N 25°47' W 080°11'0 0.0
2018-Dec-07 18:57N 25°47' W 080°11'0 0.0
2018-Dec-07 18:30N 25°47' W 080°11'0 0.0
2018-Dec-07 18:00N 25°47' W 080°11'0 0.0
2018-Dec-07 17:30N 25°47' W 080°11'0 0.0
2018-Dec-07 17:00N 25°47' W 080°11'0 0.0
2018-Dec-07 16:27N 25°47' W 080°11'0 0.0
2018-Dec-07 16:00N 25°47' W 080°11'0 0.0
2018-Dec-07 15:30N 25°47' W 080°11'0 0.0
2018-Dec-07 14:57N 25°47' W 080°11'0 0.0
2018-Dec-07 14:30N 25°47' W 080°11'0 0.0
2018-Dec-07 13:57N 25°47' W 080°11'0 0.0
2018-Dec-07 13:30N 25°47' W 080°11'0 0.0
2018-Dec-07 13:00N 25°47' W 080°11'0 0.0
2018-Dec-07 12:27N 25°47' W 080°11'0 0.0
2018-Dec-07 12:00N 25°47' W 080°11'0 0.6
2018-Dec-07 11:30N 25°47' W 080°11'2 4.3
2018-Dec-07 11:00N 25°46' W 080°09'510.4
2018-Dec-07 10:31N 25°47' W 080°03'4 8.4
2018-Dec-07 10:00N 25°44' W 079°60'713.5
2018-Dec-07 09:30N 25°37' W 079°59'713.4
2018-Dec-07 09:01N 25°30' W 079°58'713.5
2018-Dec-07 08:30N 25°24' W 079°57'713.4
2018-Dec-07 08:00N 25°17' W 079°57'47414.4
2018-Dec-05 23:06N 20°39' W 086°54'115.4
2018-Dec-05 23:00N 20°37' W 086°54'715.0
2018-Dec-05 22:30N 20°31' W 086°58'2 3.9
2018-Dec-05 22:00N 20°29' W 086°59'0 0.0
2018-Dec-05 21:30N 20°29' W 086°59'0 0.0
2018-Dec-05 21:00N 20°29' W 086°59'0 0.0
2018-Dec-05 20:30N 20°29' W 086°59'0 0.0
2018-Dec-05 20:00N 20°29' W 086°59'0 0.0
2018-Dec-05 19:30N 20°29' W 086°59'0 0.0
2018-Dec-05 19:00N 20°29' W 086°59'0 0.0
2018-Dec-05 18:30N 20°29' W 086°59'0 0.0
2018-Dec-05 18:00N 20°29' W 086°59'0 0.0
2018-Dec-05 17:27N 20°29' W 086°59'0 0.0
2018-Dec-05 17:00N 20°29' W 086°59'0 0.0
2018-Dec-05 16:30N 20°29' W 086°59'0 0.0
2018-Dec-05 16:00N 20°29' W 086°59'0 0.0
2018-Dec-05 15:30N 20°29' W 086°59'0 0.0
2018-Dec-05 15:00N 20°29' W 086°59'0 0.0
2018-Dec-05 14:30N 20°29' W 086°59'0 0.0
2018-Dec-05 14:00N 20°29' W 086°59'0 0.0
2018-Dec-05 13:30N 20°29' W 086°59'0 0.0
2018-Dec-05 13:00N 20°29' W 086°59'0 0.0
2018-Dec-05 12:30N 20°29' W 086°59'0 0.0
2018-Dec-05 11:57N 20°29' W 086°59'0 0.0
2018-Dec-05 11:30N 20°29' W 086°59'2 3.7
2018-Dec-05 11:00N 20°29' W 087°00'612.0
2018-Dec-05 10:30N 20°24' W 087°04'  
2018-Dec-03 05:00N 24°32' W 080°55'817.0
2018-Dec-03 04:31N 24°35' W 080°47'1016.9
2018-Dec-03 03:55N 24°42' W 080°38'717.1
2018-Dec-03 03:30N 24°46' W 080°32'917.5
2018-Dec-03 03:00N 24°51' W 080°24'1017.2
2018-Dec-03 02:27N 24°57' W 080°16'917.5
2018-Dec-03 01:57N 25°04' W 080°11'817.2
2018-Dec-03 01:30N 25°11' W 080°06'817.1
2018-Dec-03 01:00N 25°18' W 080°01'816.2
2018-Dec-03 00:30N 25°26' W 080°00'815.1
2018-Dec-03 00:00N 25°33' W 080°00'714.9
2018-Dec-02 23:31N 25°41' W 080°00'612.0
2018-Dec-02 23:00N 25°46' W 080°03'5 9.8
2018-Dec-02 22:30N 25°46' W 080°09'2 3.1
2018-Dec-02 21:58N 25°47' W 080°11'0 0.0
2018-Dec-02 21:22N 25°47' W 080°11'0 0.0
2018-Dec-02 20:52N 25°47' W 080°11'0 0.0
2018-Dec-02 20:28N 25°47' W 080°11'0 0.0
2018-Dec-02 19:52N 25°47' W 080°11'0 0.0
2018-Dec-02 19:28N 25°47' W 080°11'0 0.0
2018-Dec-02 18:55N 25°47' W 080°11'0 0.0
2018-Dec-02 18:28N 25°47' W 080°11'0 0.0
2018-Dec-02 17:55N 25°47' W 080°11'0 0.0
2018-Dec-02 17:25N 25°47' W 080°11'0 0.0
2018-Dec-02 16:58N 25°47' W 080°11'0 0.0
2018-Dec-02 16:25N 25°47' W 080°11'0 0.0
2018-Dec-02 15:58N 25°47' W 080°11'0 0.0
2018-Dec-02 15:28N 25°47' W 080°11'0 0.0
2018-Dec-02 14:58N 25°47' W 080°11'0 0.0
2018-Dec-02 14:28N 25°47' W 080°11'0 0.0
2018-Dec-02 13:58N 25°47' W 080°11'0 0.0
2018-Dec-02 13:28N 25°47' W 080°11'0 0.0
2018-Dec-02 12:58N 25°47' W 080°11'0 0.0
2018-Dec-02 12:28N 25°47' W 080°11'0 0.0
2018-Dec-02 11:58N 25°47' W 080°11'0 0.3
2018-Dec-02 11:30N 25°47' W 080°11'2 4.4
2018-Dec-02 11:00N 25°46' W 080°09'611.6
2018-Dec-02 10:30N 25°46' W 080°02'611.2
2018-Dec-02 10:01N 25°41' W 079°58'917.8
2018-Dec-02 09:31N 25°33' W 079°55'917.3
2018-Dec-02 09:00N 25°25' W 079°52'1018.7
2018-Dec-02 08:29N 25°16' W 079°47'  
Track history (hours):
 
Tides and Currents Weather Stations Pressure Air Temp Water Temp Dewpoint Dewpoint Depression Visibility Wind Speed Wind Dir Waves Ship Positions

Navigator Of The Seas

Operator: Royal Caribbean Cruises Ltd

Last reported at 2018-Dec-08 01:22 UTC. Time now 2018-Dec-12 14:39 UTC.
Position N 25°13' W 079°48'.

Type: Passenger vessel. MMSI: 311478000.

Date/timePositionNaut miles runAvg speedWind from/ knotsBaromVisibWave heightAir tempDewpointWater temp
2018-Dec-08 01:22N 25°13' W 079°48'615.1
2018-Dec-08 01:00N 25°19' W 079°50'714.9
2018-Dec-08 00:30N 25°26' W 079°53'714.7
2018-Dec-08 00:00N 25°32' W 079°56'714.2
2018-Dec-07 23:30N 25°39' W 079°60'714.2
2018-Dec-07 23:00N 25°45' W 080°04'5 9.1
2018-Dec-07 22:30N 25°46' W 080°09'2 3.5
2018-Dec-07 22:00N 25°47' W 080°11'0 0.0
2018-Dec-07 21:30N 25°47' W 080°11'0 0.0
2018-Dec-07 21:00N 25°47' W 080°11'0 0.0
2018-Dec-07 20:30N 25°47' W 080°11'0 0.0
2018-Dec-07 20:00N 25°47' W 080°11'0 0.0
2018-Dec-07 19:30N 25°47' W 080°11'0 0.0
2018-Dec-07 18:57N 25°47' W 080°11'0 0.0
2018-Dec-07 18:30N 25°47' W 080°11'0 0.0
2018-Dec-07 18:00N 25°47' W 080°11'0 0.0
2018-Dec-07 17:30N 25°47' W 080°11'0 0.0
2018-Dec-07 17:00N 25°47' W 080°11'0 0.0
2018-Dec-07 16:27N 25°47' W 080°11'0 0.0
2018-Dec-07 16:00N 25°47' W 080°11'0 0.0
2018-Dec-07 15:30N 25°47' W 080°11'0 0.0
2018-Dec-07 14:57N 25°47' W 080°11'0 0.0
2018-Dec-07 14:30N 25°47' W 080°11'0 0.0
2018-Dec-07 13:57N 25°47' W 080°11'0 0.0
2018-Dec-07 13:30N 25°47' W 080°11'0 0.0
2018-Dec-07 13:00N 25°47' W 080°11'0 0.0
2018-Dec-07 12:27N 25°47' W 080°11'0 0.0
2018-Dec-07 12:00N 25°47' W 080°11'0 0.6
2018-Dec-07 11:30N 25°47' W 080°11'2 4.3
2018-Dec-07 11:00N 25°46' W 080°09'510.4
2018-Dec-07 10:31N 25°47' W 080°03'4 8.4
2018-Dec-07 10:00N 25°44' W 079°60'713.5
2018-Dec-07 09:30N 25°37' W 079°59'713.4
2018-Dec-07 09:01N 25°30' W 079°58'713.5
2018-Dec-07 08:30N 25°24' W 079°57'713.4
2018-Dec-07 08:00N 25°17' W 079°57'47414.4
2018-Dec-05 23:06N 20°39' W 086°54'115.4
2018-Dec-05 23:00N 20°37' W 086°54'715.0
2018-Dec-05 22:30N 20°31' W 086°58'2 3.9
2018-Dec-05 22:00N 20°29' W 086°59'0 0.0
2018-Dec-05 21:30N 20°29' W 086°59'0 0.0
2018-Dec-05 21:00N 20°29' W 086°59'0 0.0
2018-Dec-05 20:30N 20°29' W 086°59'0 0.0
2018-Dec-05 20:00N 20°29' W 086°59'0 0.0
2018-Dec-05 19:30N 20°29' W 086°59'0 0.0
2018-Dec-05 19:00N 20°29' W 086°59'0 0.0
2018-Dec-05 18:30N 20°29' W 086°59'0 0.0
2018-Dec-05 18:00N 20°29' W 086°59'0 0.0
2018-Dec-05 17:27N 20°29' W 086°59'0 0.0
2018-Dec-05 17:00N 20°29' W 086°59'0 0.0
2018-Dec-05 16:30N 20°29' W 086°59'0 0.0
2018-Dec-05 16:00N 20°29' W 086°59'0 0.0
2018-Dec-05 15:30N 20°29' W 086°59'0 0.0
2018-Dec-05 15:00N 20°29' W 086°59'0 0.0
2018-Dec-05 14:30N 20°29' W 086°59'0 0.0
2018-Dec-05 14:00N 20°29' W 086°59'0 0.0
2018-Dec-05 13:30N 20°29' W 086°59'0 0.0
2018-Dec-05 13:00N 20°29' W 086°59'0 0.0
2018-Dec-05 12:30N 20°29' W 086°59'0 0.0
2018-Dec-05 11:57N 20°29' W 086°59'0 0.0
2018-Dec-05 11:30N 20°29' W 086°59'2 3.7
2018-Dec-05 11:00N 20°29' W 087°00'612.0
2018-Dec-05 10:30N 20°24' W 087°04'  
2018-Dec-03 05:00N 24°32' W 080°55'817.0
2018-Dec-03 04:31N 24°35' W 080°47'1016.9
2018-Dec-03 03:55N 24°42' W 080°38'717.1
2018-Dec-03 03:30N 24°46' W 080°32'917.5
2018-Dec-03 03:00N 24°51' W 080°24'1017.2
2018-Dec-03 02:27N 24°57' W 080°16'917.5
2018-Dec-03 01:57N 25°04' W 080°11'817.2
2018-Dec-03 01:30N 25°11' W 080°06'817.1
2018-Dec-03 01:00N 25°18' W 080°01'816.2
2018-Dec-03 00:30N 25°26' W 080°00'815.1
2018-Dec-03 00:00N 25°33' W 080°00'714.9
2018-Dec-02 23:31N 25°41' W 080°00'612.0
2018-Dec-02 23:00N 25°46' W 080°03'5 9.8
2018-Dec-02 22:30N 25°46' W 080°09'2 3.1
2018-Dec-02 21:58N 25°47' W 080°11'0 0.0
2018-Dec-02 21:22N 25°47' W 080°11'0 0.0
2018-Dec-02 20:52N 25°47' W 080°11'0 0.0
2018-Dec-02 20:28N 25°47' W 080°11'0 0.0
2018-Dec-02 19:52N 25°47' W 080°11'0 0.0
2018-Dec-02 19:28N 25°47' W 080°11'0 0.0
2018-Dec-02 18:55N 25°47' W 080°11'0 0.0
2018-Dec-02 18:28N 25°47' W 080°11'0 0.0
2018-Dec-02 17:55N 25°47' W 080°11'0 0.0
2018-Dec-02 17:25N 25°47' W 080°11'0 0.0
2018-Dec-02 16:58N 25°47' W 080°11'0 0.0
2018-Dec-02 16:25N 25°47' W 080°11'0 0.0
2018-Dec-02 15:58N 25°47' W 080°11'0 0.0
2018-Dec-02 15:28N 25°47' W 080°11'0 0.0
2018-Dec-02 14:58N 25°47' W 080°11'0 0.0
2018-Dec-02 14:28N 25°47' W 080°11'0 0.0
2018-Dec-02 13:58N 25°47' W 080°11'0 0.0
2018-Dec-02 13:28N 25°47' W 080°11'0 0.0
2018-Dec-02 12:58N 25°47' W 080°11'0 0.0
2018-Dec-02 12:28N 25°47' W 080°11'0 0.0
2018-Dec-02 11:58N 25°47' W 080°11'0 0.3
2018-Dec-02 11:30N 25°47' W 080°11'2 4.4
2018-Dec-02 11:00N 25°46' W 080°09'611.6
2018-Dec-02 10:30N 25°46' W 080°02'611.2
2018-Dec-02 10:01N 25°41' W 079°58'917.8
2018-Dec-02 09:31N 25°33' W 079°55'917.3
2018-Dec-02 09:00N 25°25' W 079°52'1018.7
2018-Dec-02 08:29N 25°16' W 079°47'  

Dump ship's entire track history